sensor_id;sensor_type;location;lat;lon;timestamp;temperature;humidity
16267;DHT22;8241;48.786;9.250;2022-09-16T00:20:29;16.10;99.90
16267;DHT22;8241;48.786;9.250;2022-09-16T00:22:56;16.10;99.90
16267;DHT22;8241;48.786;9.250;2022-09-16T00:25:31;16.10;99.90
16267;DHT22;8241;48.786;9.250;2022-09-16T00:28:02;16.10;99.90
16267;DHT22;8241;48.786;9.250;2022-09-16T00:30:30;16.10;99.90
16267;DHT22;8241;48.786;9.250;2022-09-16T00:32:57;16.10;99.90
16267;DHT22;8241;48.786;9.250;2022-09-16T00:35:24;16.00;99.90
16267;DHT22;8241;48.786;9.250;2022-09-16T00:37:54;15.90;99.90
16267;DHT22;8241;48.786;9.250;2022-09-16T00:40:21;15.90;99.90
16267;DHT22;8241;48.786;9.250;2022-09-16T00:42:49;15.90;99.90
16267;DHT22;8241;48.786;9.250;2022-09-16T00:45:18;15.80;99.90
16267;DHT22;8241;48.786;9.250;2022-09-16T00:47:48;15.80;99.90
16267;DHT22;8241;48.786;9.250;2022-09-16T00:50:20;15.80;99.90
16267;DHT22;8241;48.786;9.250;2022-09-16T00:52:49;15.80;99.90
16267;DHT22;8241;48.786;9.250;2022-09-16T00:55:21;15.70;99.90
16267;DHT22;8241;48.786;9.250;2022-09-16T00:57:58;15.70;99.90
16267;DHT22;8241;48.786;9.250;2022-09-16T01:00:26;15.80;99.90
16267;DHT22;8241;48.786;9.250;2022-09-16T01:02:53;15.70;99.90
16267;DHT22;8241;48.786;9.250;2022-09-16T01:05:21;15.80;99.90
16267;DHT22;8241;48.786;9.250;2022-09-16T01:07:51;15.90;99.90
16267;DHT22;8241;48.786;9.250;2022-09-16T01:10:25;15.80;99.90
16267;DHT22;8241;48.786;9.250;2022-09-16T01:12:55;15.90;99.90
16267;DHT22;8241;48.786;9.250;2022-09-16T01:15:27;15.90;99.90
16267;DHT22;8241;48.786;9.250;2022-09-16T01:18:06;15.80;99.90
16267;DHT22;8241;48.786;9.250;2022-09-16T01:21:12;15.70;99.90
16267;DHT22;8241;48.786;9.250;2022-09-16T01:24:11;15.60;99.90
16267;DHT22;8241;48.786;9.250;2022-09-16T01:33:09;15.90;99.90
16267;DHT22;8241;48.786;9.250;2022-09-16T01:35:49;15.70;99.90
16267;DHT22;8241;48.786;9.250;2022-09-16T01:38:31;15.60;99.90
16267;DHT22;8241;48.786;9.250;2022-09-16T01:41:06;15.70;99.90
16267;DHT22;8241;48.786;9.250;2022-09-16T01:43:46;15.70;99.90
16267;DHT22;8241;48.786;9.250;2022-09-16T01:46:20;15.60;99.90
16267;DHT22;8241;48.786;9.250;2022-09-16T01:48:53;15.70;99.90
16267;DHT22;8241;48.786;9.250;2022-09-16T01:51:27;15.70;99.90
16267;DHT22;8241;48.786;9.250;2022-09-16T01:54:01;15.70;99.90
16267;DHT22;8241;48.786;9.250;2022-09-16T01:56:36;15.70;99.90
16267;DHT22;8241;48.786;9.250;2022-09-16T01:59:09;15.60;99.90
16267;DHT22;8241;48.786;9.250;2022-09-16T02:01:40;15.50;99.90
16267;DHT22;8241;48.786;9.250;2022-09-16T02:04:13;15.40;99.90
16267;DHT22;8241;48.786;9.250;2022-09-16T02:06:42;15.40;99.90
16267;DHT22;8241;48.786;9.250;2022-09-16T02:09:15;15.50;99.90
16267;DHT22;8241;48.786;9.250;2022-09-16T02:11:45;15.40;99.90
16267;DHT22;8241;48.786;9.250;2022-09-16T02:14:15;15.50;99.90
16267;DHT22;8241;48.786;9.250;2022-09-16T02:16:47;15.50;99.90
16267;DHT22;8241;48.786;9.250;2022-09-16T02:19:20;15.50;99.90
16267;DHT22;8241;48.786;9.250;2022-09-16T02:21:50;15.40;99.90
16267;DHT22;8241;48.786;9.250;2022-09-16T02:24:20;15.40;99.90
16267;DHT22;8241;48.786;9.250;2022-09-16T02:26:50;15.50;99.90
16267;DHT22;8241;48.786;9.250;2022-09-16T02:29:20;15.50;99.90
16267;DHT22;8241;48.786;9.250;2022-09-16T02:31:50;15.50;99.90
16267;DHT22;8241;48.786;9.250;2022-09-16T02:34:25;15.50;99.90
16267;DHT22;8241;48.786;9.250;2022-09-16T02:37:00;15.50;99.90
16267;DHT22;8241;48.786;9.250;2022-09-16T02:39:29;15.40;99.90
16267;DHT22;8241;48.786;9.250;2022-09-16T02:41:58;15.40;99.90
16267;DHT22;8241;48.786;9.250;2022-09-16T02:44:26;15.40;99.90
16267;DHT22;8241;48.786;9.250;2022-09-16T02:46:58;15.40;99.90
16267;DHT22;8241;48.786;9.250;2022-09-16T02:49:33;15.40;99.90
16267;DHT22;8241;48.786;9.250;2022-09-16T02:52:11;15.40;99.90
16267;DHT22;8241;48.786;9.250;2022-09-16T02:54:50;15.50;99.90
16267;DHT22;8241;48.786;9.250;2022-09-16T02:57:18;15.50;99.90
16267;DHT22;8241;48.786;9.250;2022-09-16T02:59:51;15.50;99.90
16267;DHT22;8241;48.786;9.250;2022-09-16T03:02:19;15.50;99.90
16267;DHT22;8241;48.786;9.250;2022-09-16T03:04:51;15.40;99.90
16267;DHT22;8241;48.786;9.250;2022-09-16T03:07:18;15.50;99.90
16267;DHT22;8241;48.786;9.250;2022-09-16T03:09:46;15.50;99.90
16267;DHT22;8241;48.786;9.250;2022-09-16T03:12:40;15.50;99.90
16267;DHT22;8241;48.786;9.250;2022-09-16T03:15:30;15.50;99.90
16267;DHT22;8241;48.786;9.250;2022-09-16T03:21:04;15.30;99.90
16267;DHT22;8241;48.786;9.250;2022-09-16T03:23:41;15.30;99.90
16267;DHT22;8241;48.786;9.250;2022-09-16T03:26:18;15.40;99.90
16267;DHT22;8241;48.786;9.250;2022-09-16T03:28:54;15.40;99.90
16267;DHT22;8241;48.786;9.250;2022-09-16T03:31:27;15.40;99.90
16267;DHT22;8241;48.786;9.250;2022-09-16T03:34:03;15.40;99.90
16267;DHT22;8241;48.786;9.250;2022-09-16T03:36:35;15.40;99.90
16267;DHT22;8241;48.786;9.250;2022-09-16T03:39:04;15.40;99.90
16267;DHT22;8241;48.786;9.250;2022-09-16T03:41:31;15.40;99.90
16267;DHT22;8241;48.786;9.250;2022-09-16T03:44:02;15.40;99.90
16267;DHT22;8241;48.786;9.250;2022-09-16T03:46:29;15.40;99.90
16267;DHT22;8241;48.786;9.250;2022-09-16T03:48:57;15.40;99.90
16267;DHT22;8241;48.786;9.250;2022-09-16T03:51:28;15.40;99.90
16267;DHT22;8241;48.786;9.250;2022-09-16T03:53:56;15.50;99.90
16267;DHT22;8241;48.786;9.250;2022-09-16T03:56:32;15.40;99.90
16267;DHT22;8241;48.786;9.250;2022-09-16T03:59:02;15.40;99.90
16267;DHT22;8241;48.786;9.250;2022-09-16T04:01:29;15.40;99.90
16267;DHT22;8241;48.786;9.250;2022-09-16T04:03:56;15.30;99.90
16267;DHT22;8241;48.786;9.250;2022-09-16T04:06:28;15.40;99.90
16267;DHT22;8241;48.786;9.250;2022-09-16T04:08:56;15.40;99.90
16267;DHT22;8241;48.786;9.250;2022-09-16T04:11:26;15.40;99.90
16267;DHT22;8241;48.786;9.250;2022-09-16T04:13:56;15.40;99.90
16267;DHT22;8241;48.786;9.250;2022-09-16T04:16:23;15.40;99.90
16267;DHT22;8241;48.786;9.250;2022-09-16T04:18:50;15.40;99.90
16267;DHT22;8241;48.786;9.250;2022-09-16T04:21:26;15.40;99.90
16267;DHT22;8241;48.786;9.250;2022-09-16T04:23:53;15.40;99.90
16267;DHT22;8241;48.786;9.250;2022-09-16T04:26:22;15.40;99.90
16267;DHT22;8241;48.786;9.250;2022-09-16T04:28:51;15.40;99.90
16267;DHT22;8241;48.786;9.250;2022-09-16T04:31:19;15.40;99.90
16267;DHT22;8241;48.786;9.250;2022-09-16T04:33:54;15.40;99.90
16267;DHT22;8241;48.786;9.250;2022-09-16T04:36:21;15.40;99.90
16267;DHT22;8241;48.786;9.250;2022-09-16T04:38:55;15.40;99.90
16267;DHT22;8241;48.786;9.250;2022-09-16T04:41:25;15.40;99.90
16267;DHT22;8241;48.786;9.250;2022-09-16T04:43:53;15.50;99.90
16267;DHT22;8241;48.786;9.250;2022-09-16T04:46:22;15.40;99.90
16267;DHT22;8241;48.786;9.250;2022-09-16T04:48:52;15.40;99.90
16267;DHT22;8241;48.786;9.250;2022-09-16T04:51:26;15.50;99.90
16267;DHT22;8241;48.786;9.250;2022-09-16T04:53:54;15.50;99.90
16267;DHT22;8241;48.786;9.250;2022-09-16T04:56:25;15.50;99.90
16267;DHT22;8241;48.786;9.250;2022-09-16T04:58:53;15.40;99.90
16267;DHT22;8241;48.786;9.250;2022-09-16T05:01:26;15.40;99.90
16267;DHT22;8241;48.786;9.250;2022-09-16T05:03:54;15.40;99.90
16267;DHT22;8241;48.786;9.250;2022-09-16T05:06:24;15.40;99.90
16267;DHT22;8241;48.786;9.250;2022-09-16T05:08:53;15.40;99.90
16267;DHT22;8241;48.786;9.250;2022-09-16T05:11:25;15.30;99.90
16267;DHT22;8241;48.786;9.250;2022-09-16T05:13:54;15.30;99.90
16267;DHT22;8241;48.786;9.250;2022-09-16T05:16:25;15.40;99.90
16267;DHT22;8241;48.786;9.250;2022-09-16T05:18:55;15.30;99.90
16267;DHT22;8241;48.786;9.250;2022-09-16T05:21:24;15.30;99.90
16267;DHT22;8241;48.786;9.250;2022-09-16T05:23:51;15.30;99.90
16267;DHT22;8241;48.786;9.250;2022-09-16T05:26:19;15.30;99.90
16267;DHT22;8241;48.786;9.250;2022-09-16T05:28:48;15.30;99.90
16267;DHT22;8241;48.786;9.250;2022-09-16T05:31:17;15.30;99.90
16267;DHT22;8241;48.786;9.250;2022-09-16T05:33:52;15.30;99.90
16267;DHT22;8241;48.786;9.250;2022-09-16T05:36:19;15.30;99.90
16267;DHT22;8241;48.786;9.250;2022-09-16T05:38:49;15.30;99.90
16267;DHT22;8241;48.786;9.250;2022-09-16T05:41:16;15.40;99.90
16267;DHT22;8241;48.786;9.250;2022-09-16T05:43:45;15.40;99.90
16267;DHT22;8241;48.786;9.250;2022-09-16T05:46:18;15.30;99.90
16267;DHT22;8241;48.786;9.250;2022-09-16T05:48:46;15.30;99.90
16267;DHT22;8241;48.786;9.250;2022-09-16T05:51:15;15.20;99.90
16267;DHT22;8241;48.786;9.250;2022-09-16T05:53:43;15.20;99.90
16267;DHT22;8241;48.786;9.250;2022-09-16T05:56:13;15.20;99.90
16267;DHT22;8241;48.786;9.250;2022-09-16T05:58:40;15.20;99.90
16267;DHT22;8241;48.786;9.250;2022-09-16T06:01:13;15.20;99.90
16267;DHT22;8241;48.786;9.250;2022-09-16T06:03:44;15.20;99.90
16267;DHT22;8241;48.786;9.250;2022-09-16T06:06:13;15.20;99.90
16267;DHT22;8241;48.786;9.250;2022-09-16T06:08:41;15.20;99.90
16267;DHT22;8241;48.786;9.250;2022-09-16T06:11:10;15.20;99.90
16267;DHT22;8241;48.786;9.250;2022-09-16T06:13:38;15.10;99.90
16267;DHT22;8241;48.786;9.250;2022-09-16T06:16:07;15.10;99.90
16267;DHT22;8241;48.786;9.250;2022-09-16T06:18:35;15.10;99.90
16267;DHT22;8241;48.786;9.250;2022-09-16T06:21:06;15.20;99.90
16267;DHT22;8241;48.786;9.250;2022-09-16T06:23:35;15.20;99.90
16267;DHT22;8241;48.786;9.250;2022-09-16T06:26:04;15.20;99.90
16267;DHT22;8241;48.786;9.250;2022-09-16T06:28:33;15.30;99.90
16267;DHT22;8241;48.786;9.250;2022-09-16T06:31:03;15.20;99.90
16267;DHT22;8241;48.786;9.250;2022-09-16T06:33:30;15.20;99.90
16267;DHT22;8241;48.786;9.250;2022-09-16T06:36:04;15.10;99.90
16267;DHT22;8241;48.786;9.250;2022-09-16T06:38:36;15.20;99.90
16267;DHT22;8241;48.786;9.250;2022-09-16T06:41:13;15.10;99.90
16267;DHT22;8241;48.786;9.250;2022-09-16T06:43:43;15.10;99.90
16267;DHT22;8241;48.786;9.250;2022-09-16T06:46:21;15.00;99.90
16267;DHT22;8241;48.786;9.250;2022-09-16T06:48:51;15.00;99.90
16267;DHT22;8241;48.786;9.250;2022-09-16T06:51:35;15.00;99.90
16267;DHT22;8241;48.786;9.250;2022-09-16T06:54:09;15.10;99.90
16267;DHT22;8241;48.786;9.250;2022-09-16T06:56:39;15.10;99.90
16267;DHT22;8241;48.786;9.250;2022-09-16T06:59:06;15.10;99.90
16267;DHT22;8241;48.786;9.250;2022-09-16T07:01:35;15.10;99.90
16267;DHT22;8241;48.786;9.250;2022-09-16T07:04:07;15.10;99.90
16267;DHT22;8241;48.786;9.250;2022-09-16T07:07:05;15.20;99.90
16267;DHT22;8241;48.786;9.250;2022-09-16T07:09:32;15.20;99.90
16267;DHT22;8241;48.786;9.250;2022-09-16T07:12:02;15.10;99.90
16267;DHT22;8241;48.786;9.250;2022-09-16T07:14:40;15.00;99.90
16267;DHT22;8241;48.786;9.250;2022-09-16T07:17:10;15.00;99.90
16267;DHT22;8241;48.786;9.250;2022-09-16T07:19:39;15.00;99.90
16267;DHT22;8241;48.786;9.250;2022-09-16T07:22:13;15.00;99.90
16267;DHT22;8241;48.786;9.250;2022-09-16T07:24:58;14.90;99.90
16267;DHT22;8241;48.786;9.250;2022-09-16T07:27:35;14.80;99.90
16267;DHT22;8241;48.786;9.250;2022-09-16T07:30:18;14.70;99.90
16267;DHT22;8241;48.786;9.250;2022-09-16T07:32:52;14.60;99.90
16267;DHT22;8241;48.786;9.250;2022-09-16T07:35:29;14.60;99.90
16267;DHT22;8241;48.786;9.250;2022-09-16T07:38:22;14.60;99.90
16267;DHT22;8241;48.786;9.250;2022-09-16T07:40:50;14.60;99.90
16267;DHT22;8241;48.786;9.250;2022-09-16T07:43:26;14.60;99.90
16267;DHT22;8241;48.786;9.250;2022-09-16T07:46:00;14.70;99.90
16267;DHT22;8241;48.786;9.250;2022-09-16T07:48:39;14.70;99.90
16267;DHT22;8241;48.786;9.250;2022-09-16T07:51:12;14.70;99.90
16267;DHT22;8241;48.786;9.250;2022-09-16T07:53:52;14.80;99.90
16267;DHT22;8241;48.786;9.250;2022-09-16T07:56:28;14.80;99.90
16267;DHT22;8241;48.786;9.250;2022-09-16T07:58:56;14.80;99.90
16267;DHT22;8241;48.786;9.250;2022-09-16T08:01:23;14.80;99.90
16267;DHT22;8241;48.786;9.250;2022-09-16T08:04:01;14.80;99.90
16267;DHT22;8241;48.786;9.250;2022-09-16T08:06:44;14.80;99.90
16267;DHT22;8241;48.786;9.250;2022-09-16T08:09:27;14.80;99.90
16267;DHT22;8241;48.786;9.250;2022-09-16T08:11:56;14.80;99.90
16267;DHT22;8241;48.786;9.250;2022-09-16T08:14:24;14.80;99.90
16267;DHT22;8241;48.786;9.250;2022-09-16T08:17:01;14.80;99.90
16267;DHT22;8241;48.786;9.250;2022-09-16T08:19:34;14.90;99.90
16267;DHT22;8241;48.786;9.250;2022-09-16T08:22:09;14.90;99.90
16267;DHT22;8241;48.786;9.250;2022-09-16T08:24:37;14.90;99.90
16267;DHT22;8241;48.786;9.250;2022-09-16T08:27:04;14.90;99.90
16267;DHT22;8241;48.786;9.250;2022-09-16T08:29:37;15.10;99.90
16267;DHT22;8241;48.786;9.250;2022-09-16T08:32:05;15.00;99.90
16267;DHT22;8241;48.786;9.250;2022-09-16T08:34:39;15.00;99.90
16267;DHT22;8241;48.786;9.250;2022-09-16T08:37:08;15.10;99.90
16267;DHT22;8241;48.786;9.250;2022-09-16T08:39:37;15.00;99.90
16267;DHT22;8241;48.786;9.250;2022-09-16T08:42:22;15.00;99.90
16267;DHT22;8241;48.786;9.250;2022-09-16T08:45:17;14.90;99.90
16267;DHT22;8241;48.786;9.250;2022-09-16T08:48:00;15.00;99.90
16267;DHT22;8241;48.786;9.250;2022-09-16T08:50:34;15.00;99.90
16267;DHT22;8241;48.786;9.250;2022-09-16T08:53:06;14.90;99.90
16267;DHT22;8241;48.786;9.250;2022-09-16T08:55:40;14.80;99.90
16267;DHT22;8241;48.786;9.250;2022-09-16T08:58:14;14.80;99.90
16267;DHT22;8241;48.786;9.250;2022-09-16T09:00:47;14.90;99.90
16267;DHT22;8241;48.786;9.250;2022-09-16T09:03:24;14.90;99.90
16267;DHT22;8241;48.786;9.250;2022-09-16T09:06:13;15.10;99.90
16267;DHT22;8241;48.786;9.250;2022-09-16T09:08:49;15.30;99.90
16267;DHT22;8241;48.786;9.250;2022-09-16T09:11:33;15.30;99.90
16267;DHT22;8241;48.786;9.250;2022-09-16T09:14:39;15.30;99.90
16267;DHT22;8241;48.786;9.250;2022-09-16T09:17:16;15.20;99.90
16267;DHT22;8241;48.786;9.250;2022-09-16T09:19:56;15.30;99.90
16267;DHT22;8241;48.786;9.250;2022-09-16T09:22:45;15.40;99.90
16267;DHT22;8241;48.786;9.250;2022-09-16T09:25:31;15.30;99.90
16267;DHT22;8241;48.786;9.250;2022-09-16T09:28:39;15.40;99.90
16267;DHT22;8241;48.786;9.250;2022-09-16T09:31:30;15.30;99.90
16267;DHT22;8241;48.786;9.250;2022-09-16T09:34:24;15.40;99.90
16267;DHT22;8241;48.786;9.250;2022-09-16T09:37:16;15.40;99.90
16267;DHT22;8241;48.786;9.250;2022-09-16T09:39:55;15.20;99.90
16267;DHT22;8241;48.786;9.250;2022-09-16T09:42:35;15.30;99.90
16267;DHT22;8241;48.786;9.250;2022-09-16T09:45:16;15.20;99.90
16267;DHT22;8241;48.786;9.250;2022-09-16T09:47:56;15.20;99.90
16267;DHT22;8241;48.786;9.250;2022-09-16T09:50:32;15.20;99.90
16267;DHT22;8241;48.786;9.250;2022-09-16T09:53:08;15.40;99.90
16267;DHT22;8241;48.786;9.250;2022-09-16T09:55:42;15.40;99.90
16267;DHT22;8241;48.786;9.250;2022-09-16T09:58:25;15.50;99.90
16267;DHT22;8241;48.786;9.250;2022-09-16T10:00:56;15.60;99.90
16267;DHT22;8241;48.786;9.250;2022-09-16T10:03:25;15.60;99.90
16267;DHT22;8241;48.786;9.250;2022-09-16T10:06:01;15.60;99.90
16267;DHT22;8241;48.786;9.250;2022-09-16T10:08:40;15.50;99.90
16267;DHT22;8241;48.786;9.250;2022-09-16T10:11:15;15.40;99.90
16267;DHT22;8241;48.786;9.250;2022-09-16T10:13:53;15.40;99.90
16267;DHT22;8241;48.786;9.250;2022-09-16T10:16:25;15.30;99.90
16267;DHT22;8241;48.786;9.250;2022-09-16T10:19:01;15.50;99.90
16267;DHT22;8241;48.786;9.250;2022-09-16T10:21:41;15.40;99.90
16267;DHT22;8241;48.786;9.250;2022-09-16T10:24:29;15.50;99.90
16267;DHT22;8241;48.786;9.250;2022-09-16T10:27:25;15.60;99.90
16267;DHT22;8241;48.786;9.250;2022-09-16T10:30:04;15.60;99.90
16267;DHT22;8241;48.786;9.250;2022-09-16T10:32:44;15.60;99.90
16267;DHT22;8241;48.786;9.250;2022-09-16T10:35:18;15.50;99.90
16267;DHT22;8241;48.786;9.250;2022-09-16T10:37:49;15.40;99.90
16267;DHT22;8241;48.786;9.250;2022-09-16T10:40:19;15.50;99.90
16267;DHT22;8241;48.786;9.250;2022-09-16T10:43:02;15.50;99.90
16267;DHT22;8241;48.786;9.250;2022-09-16T10:45:34;15.70;99.90
16267;DHT22;8241;48.786;9.250;2022-09-16T10:48:12;15.70;99.90
16267;DHT22;8241;48.786;9.250;2022-09-16T10:50:59;15.70;99.90
16267;DHT22;8241;48.786;9.250;2022-09-16T10:53:30;15.70;99.90
16267;DHT22;8241;48.786;9.250;2022-09-16T10:56:02;15.70;99.90
16267;DHT22;8241;48.786;9.250;2022-09-16T10:58:29;15.70;99.90
16267;DHT22;8241;48.786;9.250;2022-09-16T11:01:07;15.70;99.90
16267;DHT22;8241;48.786;9.250;2022-09-16T11:04:12;15.70;99.90
16267;DHT22;8241;48.786;9.250;2022-09-16T11:07:06;15.70;99.90
16267;DHT22;8241;48.786;9.250;2022-09-16T11:09:47;15.80;99.90
16267;DHT22;8241;48.786;9.250;2022-09-16T11:12:28;15.70;99.90
16267;DHT22;8241;48.786;9.250;2022-09-16T11:15:05;15.70;99.90
16267;DHT22;8241;48.786;9.250;2022-09-16T11:17:49;15.70;99.90
16267;DHT22;8241;48.786;9.250;2022-09-16T11:20:46;15.60;99.90
16267;DHT22;8241;48.786;9.250;2022-09-16T11:23:26;15.70;99.90
16267;DHT22;8241;48.786;9.250;2022-09-16T11:25:59;15.80;99.90
16267;DHT22;8241;48.786;9.250;2022-09-16T11:28:39;15.70;99.90
16267;DHT22;8241;48.786;9.250;2022-09-16T11:31:16;15.80;99.90
16267;DHT22;8241;48.786;9.250;2022-09-16T11:33:50;15.80;99.90
16267;DHT22;8241;48.786;9.250;2022-09-16T11:36:43;15.80;99.90
16267;DHT22;8241;48.786;9.250;2022-09-16T11:39:23;15.70;99.90
16267;DHT22;8241;48.786;9.250;2022-09-16T11:42:04;15.70;99.90
16267;DHT22;8241;48.786;9.250;2022-09-16T11:44:47;15.60;99.90
16267;DHT22;8241;48.786;9.250;2022-09-16T11:47:36;15.60;99.90
16267;DHT22;8241;48.786;9.250;2022-09-16T11:50:29;15.70;99.90
16267;DHT22;8241;48.786;9.250;2022-09-16T11:53:25;15.90;99.90
16267;DHT22;8241;48.786;9.250;2022-09-16T11:56:06;16.10;99.90
16267;DHT22;8241;48.786;9.250;2022-09-16T11:58:43;16.30;99.90
16267;DHT22;8241;48.786;9.250;2022-09-16T12:01:27;16.30;99.90
16267;DHT22;8241;48.786;9.250;2022-09-16T12:04:07;16.30;99.90
16267;DHT22;8241;48.786;9.250;2022-09-16T12:10:03;17.00;99.90
16267;DHT22;8241;48.786;9.250;2022-09-16T12:12:52;18.20;99.90
16267;DHT22;8241;48.786;9.250;2022-09-16T12:15:34;20.20;94.20
16267;DHT22;8241;48.786;9.250;2022-09-16T12:18:18;21.10;93.70
16267;DHT22;8241;48.786;9.250;2022-09-16T12:20:56;20.80;91.60
16267;DHT22;8241;48.786;9.250;2022-09-16T12:23:34;20.30;92.20
16267;DHT22;8241;48.786;9.250;2022-09-16T12:26:25;19.80;92.40
16267;DHT22;8241;48.786;9.250;2022-09-16T12:29:15;19.40;92.50
16267;DHT22;8241;48.786;9.250;2022-09-16T12:31:51;19.20;93.50
16267;DHT22;8241;48.786;9.250;2022-09-16T12:34:27;19.10;94.30
16267;DHT22;8241;48.786;9.250;2022-09-16T12:37:20;18.90;94.40
16267;DHT22;8241;48.786;9.250;2022-09-16T12:43:30;17.70;94.80
16267;DHT22;8241;48.786;9.250;2022-09-16T12:49:59;17.80;96.20
16267;DHT22;8241;48.786;9.250;2022-09-16T12:52:50;17.70;96.30
16267;DHT22;8241;48.786;9.250;2022-09-16T12:55:35;17.60;95.70
16267;DHT22;8241;48.786;9.250;2022-09-16T12:58:29;17.30;94.20
16267;DHT22;8241;48.786;9.250;2022-09-16T13:01:14;17.30;95.50
16267;DHT22;8241;48.786;9.250;2022-09-16T13:03:54;17.40;95.00
16267;DHT22;8241;48.786;9.250;2022-09-16T13:06:52;17.40;95.30
16267;DHT22;8241;48.786;9.250;2022-09-16T13:13:18;17.40;94.40
16267;DHT22;8241;48.786;9.250;2022-09-16T13:15:54;17.40;95.10
16267;DHT22;8241;48.786;9.250;2022-09-16T13:18:38;17.30;94.90
16267;DHT22;8241;48.786;9.250;2022-09-16T13:21:20;17.50;95.00
16267;DHT22;8241;48.786;9.250;2022-09-16T13:24:03;17.40;94.50
16267;DHT22;8241;48.786;9.250;2022-09-16T13:27:00;17.80;94.30
16267;DHT22;8241;48.786;9.250;2022-09-16T13:29:45;18.00;94.30
16267;DHT22;8241;48.786;9.250;2022-09-16T13:32:39;18.50;93.90
16267;DHT22;8241;48.786;9.250;2022-09-16T13:41:31;18.60;93.00
16267;DHT22;8241;48.786;9.250;2022-09-16T13:44:29;19.20;91.20
16267;DHT22;8241;48.786;9.250;2022-09-16T13:50:56;18.80;92.80
16267;DHT22;8241;48.786;9.250;2022-09-16T13:53:29;19.50;92.40
16267;DHT22;8241;48.786;9.250;2022-09-16T14:00:14;19.50;92.20
16267;DHT22;8241;48.786;9.250;2022-09-16T14:06:13;18.70;94.00
16267;DHT22;8241;48.786;9.250;2022-09-16T14:09:08;18.50;94.00
16267;DHT22;8241;48.786;9.250;2022-09-16T14:11:47;18.40;94.40
16267;DHT22;8241;48.786;9.250;2022-09-16T14:14:32;18.20;93.60
16267;DHT22;8241;48.786;9.250;2022-09-16T14:17:38;18.20;93.20
16267;DHT22;8241;48.786;9.250;2022-09-16T14:23:18;19.20;93.80
16267;DHT22;8241;48.786;9.250;2022-09-16T14:25:53;19.60;91.40
16267;DHT22;8241;48.786;9.250;2022-09-16T14:28:29;19.60;91.20
16267;DHT22;8241;48.786;9.250;2022-09-16T14:31:15;19.40;91.60
16267;DHT22;8241;48.786;9.250;2022-09-16T14:33:49;19.30;91.60
16267;DHT22;8241;48.786;9.250;2022-09-16T14:36:22;19.10;91.70
16267;DHT22;8241;48.786;9.250;2022-09-16T14:38:55;19.10;91.70
16267;DHT22;8241;48.786;9.250;2022-09-16T14:41:25;18.90;91.70
16267;DHT22;8241;48.786;9.250;2022-09-16T14:44:08;18.70;92.40
16267;DHT22;8241;48.786;9.250;2022-09-16T14:46:41;18.70;92.80
16267;DHT22;8241;48.786;9.250;2022-09-16T14:49:13;18.60;92.60
16267;DHT22;8241;48.786;9.250;2022-09-16T14:51:55;18.50;92.60
16267;DHT22;8241;48.786;9.250;2022-09-16T14:54:43;18.30;92.70
16267;DHT22;8241;48.786;9.250;2022-09-16T15:04:23;18.20;93.30
16267;DHT22;8241;48.786;9.250;2022-09-16T15:06:58;18.30;93.10
16267;DHT22;8241;48.786;9.250;2022-09-16T15:09:36;18.20;93.50
16267;DHT22;8241;48.786;9.250;2022-09-16T15:12:05;18.20;93.80
16267;DHT22;8241;48.786;9.250;2022-09-16T15:14:36;18.20;93.90
16267;DHT22;8241;48.786;9.250;2022-09-16T15:17:04;18.20;93.60
16267;DHT22;8241;48.786;9.250;2022-09-16T15:19:35;18.20;94.00
16267;DHT22;8241;48.786;9.250;2022-09-16T15:22:13;18.20;93.90
16267;DHT22;8241;48.786;9.250;2022-09-16T15:25:04;18.10;94.20
16267;DHT22;8241;48.786;9.250;2022-09-16T15:27:31;18.00;93.60
16267;DHT22;8241;48.786;9.250;2022-09-16T15:30:18;17.90;94.20
16267;DHT22;8241;48.786;9.250;2022-09-16T15:33:00;17.90;94.20
16267;DHT22;8241;48.786;9.250;2022-09-16T15:35:28;17.70;94.40
16267;DHT22;8241;48.786;9.250;2022-09-16T15:38:09;17.70;95.80
16267;DHT22;8241;48.786;9.250;2022-09-16T15:40:43;17.60;95.00
16267;DHT22;8241;48.786;9.250;2022-09-16T15:43:20;17.50;94.00
16267;DHT22;8241;48.786;9.250;2022-09-16T15:45:57;17.50;94.40
16267;DHT22;8241;48.786;9.250;2022-09-16T15:48:28;17.50;94.40
16267;DHT22;8241;48.786;9.250;2022-09-16T15:51:00;17.50;94.00
16267;DHT22;8241;48.786;9.250;2022-09-16T15:54:05;17.60;94.10
16267;DHT22;8241;48.786;9.250;2022-09-16T15:56:36;17.60;93.70
16267;DHT22;8241;48.786;9.250;2022-09-16T15:59:19;17.60;94.10
16267;DHT22;8241;48.786;9.250;2022-09-16T16:01:56;17.70;93.90
16267;DHT22;8241;48.786;9.250;2022-09-16T16:04:33;17.90;94.10
16267;DHT22;8241;48.786;9.250;2022-09-16T16:07:05;17.90;93.80
16267;DHT22;8241;48.786;9.250;2022-09-16T16:09:41;17.90;93.70
16267;DHT22;8241;48.786;9.250;2022-09-16T16:12:11;17.90;93.70
16267;DHT22;8241;48.786;9.250;2022-09-16T16:14:39;17.80;94.00
16267;DHT22;8241;48.786;9.250;2022-09-16T16:17:16;17.60;94.20
16267;DHT22;8241;48.786;9.250;2022-09-16T16:19:51;17.50;94.40
16267;DHT22;8241;48.786;9.250;2022-09-16T16:22:24;17.40;94.40
16267;DHT22;8241;48.786;9.250;2022-09-16T16:24:55;17.30;94.70
16267;DHT22;8241;48.786;9.250;2022-09-16T16:27:29;17.30;94.80
16267;DHT22;8241;48.786;9.250;2022-09-16T16:29:59;17.30;95.40
16267;DHT22;8241;48.786;9.250;2022-09-16T16:32:26;17.20;96.30
16267;DHT22;8241;48.786;9.250;2022-09-16T16:34:53;17.20;95.70
16267;DHT22;8241;48.786;9.250;2022-09-16T16:37:31;17.20;96.10
16267;DHT22;8241;48.786;9.250;2022-09-16T16:39:58;17.10;95.90
16267;DHT22;8241;48.786;9.250;2022-09-16T16:42:24;17.20;95.30
16267;DHT22;8241;48.786;9.250;2022-09-16T16:44:56;17.30;95.70
16267;DHT22;8241;48.786;9.250;2022-09-16T16:47:23;17.30;94.80
16267;DHT22;8241;48.786;9.250;2022-09-16T16:49:58;17.40;94.90
16267;DHT22;8241;48.786;9.250;2022-09-16T16:52:30;17.30;94.80
16267;DHT22;8241;48.786;9.250;2022-09-16T17:02:03;17.10;95.00
16267;DHT22;8241;48.786;9.250;2022-09-16T17:04:33;16.90;95.50
16267;DHT22;8241;48.786;9.250;2022-09-16T17:07:08;16.90;95.20
16267;DHT22;8241;48.786;9.250;2022-09-16T17:09:37;16.80;95.60
16267;DHT22;8241;48.786;9.250;2022-09-16T17:12:05;16.80;96.10
16267;DHT22;8241;48.786;9.250;2022-09-16T17:14:44;16.70;95.20
16267;DHT22;8241;48.786;9.250;2022-09-16T17:17:13;16.60;95.50
16267;DHT22;8241;48.786;9.250;2022-09-16T17:19:48;16.60;95.80
16267;DHT22;8241;48.786;9.250;2022-09-16T17:22:22;16.60;96.00
16267;DHT22;8241;48.786;9.250;2022-09-16T17:24:59;16.60;95.80
16267;DHT22;8241;48.786;9.250;2022-09-16T17:27:31;16.50;95.80
16267;DHT22;8241;48.786;9.250;2022-09-16T17:29:58;16.30;96.20
16267;DHT22;8241;48.786;9.250;2022-09-16T17:32:26;16.20;96.80
16267;DHT22;8241;48.786;9.250;2022-09-16T17:35:05;16.10;97.40
16267;DHT22;8241;48.786;9.250;2022-09-16T17:37:32;16.10;98.30
16267;DHT22;8241;48.786;9.250;2022-09-16T17:40:02;16.00;99.90
16267;DHT22;8241;48.786;9.250;2022-09-16T17:42:38;15.80;99.90
16267;DHT22;8241;48.786;9.250;2022-09-16T17:45:06;15.60;99.90
16267;DHT22;8241;48.786;9.250;2022-09-16T17:48:07;15.40;99.90
16267;DHT22;8241;48.786;9.250;2022-09-16T17:50:43;15.20;99.90
16267;DHT22;8241;48.786;9.250;2022-09-16T17:53:21;15.10;99.90
16267;DHT22;8241;48.786;9.250;2022-09-16T17:56:24;15.10;99.90